Otis, Indiana
Current Conditions -  °F | °C
As of 5:56 AM on Monday 24 Nov 2014 (Local Time) from KVPZ Reporting Station
Light Rain Light Rain  
Wind Chill: 46°   Ceiling: 200
Heat Index: 49°   Visibility: 3mi
Dew Point: 49°   Wind: 7mph
Humidity: 100%   Direction: 190°S
Pressure: 29.1"   Gusts: NA
Location:  41.5386°N, 86.9094°W
Report Text: KVPZ 241156Z AUTO 19006KT 3SM -RA BR OVC002 09/09 A2910 RMK AO2 RAB53 SLP854 P0000 60006 70128 T00940094 10100 20094 58007 TSNO
Loading
Personal Weather Stations






























Interactive Weather Map New forecast layout! Learn more

10-Day Weather Forecast

Advertisements
Track Severe Weather on mobile